createdAt,value
2023-04-08T00:03:06.246Z,5.4375
2023-04-08T00:08:07.841Z,5.5
2023-04-08T00:13:09.128Z,5.5
2023-04-08T00:18:09.030Z,5.5
2023-04-08T00:23:09.619Z,5.4375
2023-04-08T00:28:10.405Z,5.5
2023-04-08T00:33:11.583Z,5.4375
2023-04-08T00:38:12.540Z,5.4375
2023-04-08T00:43:13.299Z,5.4375
2023-04-08T00:48:14.383Z,5.4375
2023-04-08T00:53:15.259Z,5.5
2023-04-08T00:58:16.484Z,5.375
2023-04-08T01:03:17.516Z,5.4375
2023-04-08T01:08:19.209Z,5.4375
2023-04-08T01:13:19.394Z,5.5
2023-04-08T01:18:29.841Z,5.375
2023-04-08T01:38:57.835Z,5.4375
2023-04-08T01:48:25.941Z,5.5
2023-04-08T01:53:37.566Z,5.5
2023-04-08T02:09:03.915Z,5.5
2023-04-08T02:18:31.585Z,5.4375
2023-04-08T02:23:32.669Z,5.4375
2023-04-08T02:28:33.532Z,5.5
2023-04-08T02:33:35.739Z,5.5
2023-04-08T02:38:36.943Z,5.5
2023-04-08T02:43:37.915Z,5.5
2023-04-08T02:48:38.691Z,5.5
2023-04-08T02:53:39.704Z,5.5
2023-04-08T02:58:40.592Z,5.5
2023-04-08T03:03:41.676Z,5.5
2023-04-08T03:08:43.160Z,5.5
2023-04-08T03:13:43.399Z,5.5
2023-04-08T03:18:44.257Z,5.5
2023-04-08T03:23:45.203Z,5.5
2023-04-08T03:28:46.262Z,5.5625
2023-04-08T03:33:47.276Z,5.5
2023-04-08T03:38:48.330Z,5.625
2023-04-08T03:43:49.087Z,5.625
2023-04-08T03:48:50.272Z,5.6875
2023-04-08T03:53:51.177Z,5.5625
2023-04-08T03:58:52.167Z,5.5625
2023-04-08T04:03:53.079Z,5.625
2023-04-08T04:08:53.973Z,5.6875
2023-04-08T04:13:54.803Z,5.6875
2023-04-08T04:18:55.598Z,5.6875
2023-04-08T04:23:56.567Z,5.6875
2023-04-08T04:28:57.594Z,5.6875
2023-04-08T04:33:58.493Z,5.6875
2023-04-08T04:38:59.340Z,5.75
2023-04-08T04:44:00.247Z,5.875
2023-04-08T04:49:01.385Z,5.8125
2023-04-08T04:54:02.410Z,5.8125
2023-04-08T04:59:03.400Z,5.875
2023-04-08T05:04:04.377Z,6
2023-04-08T05:09:05.553Z,5.875
2023-04-08T05:14:06.328Z,5.9375
2023-04-08T05:19:07.372Z,5.9375
2023-04-08T05:24:08.268Z,6.125
2023-04-08T05:29:09.312Z,6
2023-04-08T05:34:10.313Z,6.125
2023-04-08T05:39:11.254Z,6.125
2023-04-08T05:44:12.183Z,6.1875
2023-04-08T05:49:13.138Z,6.25
2023-04-08T05:54:13.834Z,6.3125
2023-04-08T05:59:14.641Z,6.4375
2023-04-08T06:04:15.678Z,6.25
2023-04-08T06:09:16.619Z,6.3125
2023-04-08T06:14:17.466Z,6.3125
2023-04-08T06:19:18.515Z,6.375
2023-04-08T06:24:19.471Z,6.625
2023-04-08T06:29:20.600Z,6.75
2023-04-08T06:34:21.930Z,6.9375
2023-04-08T06:39:22.909Z,7
2023-04-08T06:44:23.614Z,7.1875
2023-04-08T06:49:24.689Z,7.375
2023-04-08T06:54:25.610Z,7.4375
2023-04-08T06:59:26.536Z,7.3125
2023-04-08T07:04:27.518Z,7.4375
2023-04-08T07:09:29.041Z,7.4375
2023-04-08T07:14:29.100Z,7.5
2023-04-08T07:19:30.134Z,7.6875
2023-04-08T07:24:31.211Z,8
2023-04-08T07:29:32.234Z,8.4375
2023-04-08T07:34:33.215Z,8.5
2023-04-08T07:39:34.197Z,8.75
2023-04-08T07:44:34.933Z,9.125
2023-04-08T07:49:36.001Z,9.3125
2023-04-08T07:54:36.732Z,8.8125
2023-04-08T07:59:37.652Z,8.625
2023-04-08T08:04:38.803Z,8.5625
2023-04-08T08:09:40.374Z,8.4375
2023-04-08T08:14:40.437Z,9.0625
2023-04-08T08:19:41.262Z,8.875
2023-04-08T08:24:42.249Z,8.9375
2023-04-08T08:29:43.072Z,8.75
2023-04-08T08:34:44.204Z,9.0625
2023-04-08T08:39:45.282Z,9.25
2023-04-08T08:44:46.033Z,9.25
2023-04-08T08:49:46.908Z,9.5625
2023-04-08T08:54:47.950Z,9.875
2023-04-08T08:59:48.697Z,10.4375
2023-04-08T09:04:49.713Z,10.4375
2023-04-08T09:09:51.244Z,10.5625
2023-04-08T09:14:51.424Z,10.6875
2023-04-08T09:19:52.334Z,10.4375
2023-04-08T09:24:53.170Z,10.25
2023-04-08T09:29:54.328Z,10.4375
2023-04-08T09:34:55.396Z,11.125
2023-04-08T09:39:56.519Z,10.4375
2023-04-08T09:44:57.395Z,10.5
2023-04-08T09:49:58.282Z,10.25
2023-04-08T09:54:59.345Z,10.1875
2023-04-08T10:00:00.142Z,9.875
2023-04-08T10:05:01.131Z,10.4375
2023-04-08T10:10:02.189Z,10.375
2023-04-08T10:15:03.078Z,10.5625
2023-04-08T10:20:04.396Z,10.75
2023-04-08T10:25:05.317Z,11
2023-04-08T10:30:06.888Z,11.0625
2023-04-08T10:35:08.397Z,10.75
2023-04-08T10:40:10.948Z,11
2023-04-08T10:45:13.729Z,11.5
2023-04-08T10:50:15.982Z,11.3125
2023-04-08T10:55:16.908Z,11.5625
2023-04-08T11:00:18.119Z,11.8125
2023-04-08T11:05:19.227Z,11.5625
2023-04-08T11:10:20.302Z,11.75
2023-04-08T11:15:21.029Z,11.75
2023-04-08T11:20:22.042Z,11.8125
2023-04-08T11:25:23.154Z,11.5625
2023-04-08T11:30:24.186Z,11.8125
2023-04-08T11:35:24.841Z,11.8125
2023-04-08T11:40:25.712Z,11.9375
2023-04-08T11:45:26.519Z,12.625
2023-04-08T11:50:27.560Z,12.8125
2023-04-08T11:55:28.685Z,12.4375
2023-04-08T12:00:29.629Z,12.125
2023-04-08T12:05:30.457Z,12.125
2023-04-08T12:10:31.542Z,12.375
2023-04-08T12:15:32.508Z,12.6875
2023-04-08T12:20:33.450Z,12.9375
2023-04-08T12:25:34.435Z,12.9375
2023-04-08T12:30:35.272Z,12.625
2023-04-08T12:35:36.362Z,12.0625
2023-04-08T12:40:37.329Z,11.875
2023-04-08T12:45:38.254Z,11.9375
2023-04-08T12:50:39.016Z,11.875
2023-04-08T12:55:40.166Z,12.375
2023-04-08T13:00:41.171Z,12.625
2023-04-08T13:05:43.561Z,12.75
2023-04-08T13:10:43.922Z,12.5
2023-04-08T13:15:44.046Z,12.75
2023-04-08T13:20:44.756Z,12.9375
2023-04-08T13:25:45.633Z,13.25
2023-04-08T13:30:46.369Z,13
2023-04-08T13:35:47.360Z,12.8125
2023-04-08T13:40:49.173Z,12.5
2023-04-08T13:45:49.803Z,12.25
2023-04-08T13:50:50.794Z,11.9375
2023-04-08T13:55:51.730Z,11.9375
2023-04-08T14:00:53.324Z,12.3125
2023-04-08T14:05:54.405Z,12.875
2023-04-08T14:10:55.450Z,13.3125
2023-04-08T14:15:57.276Z,12.8125
2023-04-08T14:20:58.341Z,12.75
2023-04-08T14:25:59.401Z,12.625
2023-04-08T14:31:01.494Z,12.625
2023-04-08T14:36:02.389Z,12.875
2023-04-08T14:41:03.523Z,13.125
2023-04-08T14:46:04.551Z,13.125
2023-04-08T14:51:05.467Z,13
2023-04-08T14:56:08.054Z,12.75
2023-04-08T15:01:11.150Z,12.25
2023-04-08T15:06:14.272Z,12.0625
2023-04-08T15:11:18.797Z,11.9375
2023-04-08T15:16:21.392Z,12
2023-04-08T15:21:24.089Z,12.25
2023-04-08T15:26:24.966Z,12.5
2023-04-08T15:31:26.009Z,12.6875
2023-04-08T15:36:27.911Z,12.6875
2023-04-08T15:41:29.040Z,12.3125
2023-04-08T15:46:31.725Z,12
2023-04-08T15:51:33.720Z,11.875
2023-04-08T15:56:35.423Z,11.75
2023-04-08T16:01:36.593Z,11.6875
2023-04-08T16:06:38.654Z,11.9375
2023-04-08T16:11:39.952Z,12.0625
2023-04-08T16:16:41.109Z,12.3125
2023-04-08T16:21:41.841Z,12.4375
2023-04-08T16:26:42.789Z,12.5
2023-04-08T16:31:43.518Z,12.375
2023-04-08T16:36:44.424Z,12.25
2023-04-08T16:41:45.192Z,12.1875
2023-04-08T16:46:46.093Z,12.125
2023-04-08T16:51:47.139Z,11.9375
2023-04-08T16:56:48.247Z,11.9375
2023-04-08T17:01:49.151Z,11.8125
2023-04-08T17:06:49.997Z,11.6875
2023-04-08T17:11:51.041Z,11.625
2023-04-08T17:16:51.927Z,11.1875
2023-04-08T17:21:52.695Z,10.6875
2023-04-08T17:26:53.716Z,10.25
2023-04-08T17:31:54.714Z,9.875
2023-04-08T17:36:55.684Z,9.625
2023-04-08T17:41:56.533Z,9.3125
2023-04-08T17:46:57.541Z,9.25
2023-04-08T17:51:58.437Z,9.125
2023-04-08T17:56:59.321Z,8.9375
2023-04-08T18:02:00.219Z,8.75
2023-04-08T18:07:01.154Z,8.75
2023-04-08T18:12:02.524Z,8.6875
2023-04-08T18:17:03.137Z,8.625
2023-04-08T18:22:04.243Z,8.6875
2023-04-08T18:27:05.218Z,8.6875
2023-04-08T18:32:06.135Z,8.5625
2023-04-08T18:37:07.089Z,8.5625
2023-04-08T18:42:08.076Z,8.4375
2023-04-08T18:47:09.185Z,8.375
2023-04-08T18:52:10.154Z,8.3125
2023-04-08T18:57:11.305Z,8.25
2023-04-08T19:02:12.481Z,8.25
2023-04-08T19:07:13.260Z,8.25
2023-04-08T19:12:14.898Z,8.1875
2023-04-08T19:17:15.336Z,8.125
2023-04-08T19:22:17.129Z,8.0625
2023-04-08T19:27:18.119Z,8
2023-04-08T19:32:19.082Z,8
2023-04-08T19:37:20.034Z,7.875
2023-04-08T19:42:21.020Z,7.8125
2023-04-08T19:47:22.186Z,7.6875
2023-04-08T19:52:23.116Z,7.6875
2023-04-08T19:57:24.012Z,7.6875
2023-04-08T20:02:25.087Z,7.6875
2023-04-08T20:07:26.438Z,7.6875
2023-04-08T20:12:28.244Z,7.625
2023-04-08T20:17:28.448Z,7.4375
2023-04-08T20:22:29.308Z,7.25
2023-04-08T20:27:30.134Z,7.1875
2023-04-08T20:32:31.160Z,7.0625
2023-04-08T20:37:31.982Z,6.9375
2023-04-08T20:42:32.793Z,6.875
2023-04-08T20:47:33.841Z,6.875
2023-04-08T20:52:34.726Z,6.875
2023-04-08T20:57:35.569Z,6.8125
2023-04-08T21:02:36.650Z,6.9375
2023-04-08T21:07:37.347Z,6.9375
2023-04-08T21:12:40.097Z,6.9375
2023-04-08T21:17:39.668Z,7
2023-04-08T21:22:41.126Z,6.875
2023-04-08T21:27:41.735Z,6.6875
2023-04-08T21:32:42.784Z,6.4375
2023-04-08T21:37:43.744Z,6.1875
2023-04-08T21:42:44.620Z,6
2023-04-08T21:47:45.642Z,5.875
2023-04-08T21:52:46.553Z,5.6875
2023-04-08T21:57:47.513Z,5.5
2023-04-08T22:02:48.687Z,5.375
2023-04-08T22:07:49.885Z,5.3125
2023-04-08T22:12:50.895Z,5.1875
2023-04-08T22:17:51.720Z,5.125
2023-04-08T22:22:52.711Z,5.0625
2023-04-08T22:27:53.716Z,5
2023-04-08T22:32:54.565Z,4.9375
2023-04-08T22:37:55.807Z,4.9375
2023-04-08T22:42:56.829Z,4.875
2023-04-08T22:47:57.706Z,4.75
2023-04-08T22:52:58.535Z,4.75
2023-04-08T22:57:59.487Z,4.75
2023-04-08T23:03:00.520Z,4.625
2023-04-08T23:08:01.215Z,4.4375
2023-04-08T23:13:02.349Z,4.4375
2023-04-08T23:18:03.319Z,4.3125
2023-04-08T23:23:04.269Z,4.1875
2023-04-08T23:28:05.323Z,4.125
2023-04-08T23:33:06.176Z,4
2023-04-08T23:38:07.035Z,3.9375
2023-04-08T23:43:08.172Z,3.9375
2023-04-08T23:48:10.210Z,3.875
2023-04-08T23:53:15.234Z,3.875
2023-04-08T23:58:11.193Z,4.0625
